Terminal Aerodrome Forecast
Issued by NWS Wichita, KS

Home | Current Version | Previous Version | Text Only | Print | Product List | Glossary Off
Versions: 1 2 3 4 5 6 7 8 9 10 11 12 13

000
FTUS43 KICT 031255 AAA
TAFICT
TAF AMD
KICT 031255Z 0313/0412 18012KT P6SM VCSH BKN150
     FM031500 18017G26KT P6SM SCT100 BKN250
     FM031800 18024G34KT P6SM SCT200
     FM040100 18014KT P6SM BKN200=

USA.gov is the U.S. government's official web portal to all federal, state and local government web resources and services.